Time;durP1;ratioP1;P1;durP2;ratioP2;P2;SDS_P1;SDS_P2;PMS_P1;PMS_P2;Temp;Humidity;BMP_temperature;BMP_pressure;BME280_temperature;BME280_humidity;BME280_pressure;Samples;Min_cycle;Max_cycle;Signal;HPM_P1;HPM_P2
2023/09/16 00:01:37;;;;;;;2.30;2.00;;;19.50;77.60;;;;;;6121411;23;20217;-84
2023/09/16 00:04:04;;;;;;;2.45;2.25;;;19.50;77.60;;;;;;6121849;23;20556;-81
2023/09/16 00:06:30;;;;;;;2.40;2.20;;;19.50;77.60;;;;;;6121703;23;20217;-83
2023/09/16 00:08:56;;;;;;;2.47;2.20;;;19.50;77.60;;;;;;6120983;23;20591;-81
2023/09/16 00:11:22;;;;;;;2.90;2.30;;;19.50;77.70;;;;;;6121596;23;20155;-84
2023/09/16 00:13:48;;;;;;;2.63;2.20;;;19.50;77.70;;;;;;6096063;23;20173;-83
2023/09/16 00:16:15;;;;;;;2.53;2.25;;;19.50;77.70;;;;;;6120443;23;20556;-85
2023/09/16 00:18:41;;;;;;;3.15;2.60;;;19.50;77.70;;;;;;6072898;23;20143;-84
2023/09/16 00:21:08;;;;;;;2.38;2.17;;;19.50;77.70;;;;;;6120426;23;20171;-83
2023/09/16 00:23:33;;;;;;;2.42;2.20;;;19.50;77.80;;;;;;6119892;22;20627;-82
2023/09/16 00:25:59;;;;;;;2.42;2.03;;;19.50;77.80;;;;;;6120497;23;20182;-83
2023/09/16 00:28:26;;;;;;;2.47;2.13;;;19.50;77.80;;;;;;6120377;23;20143;-85
2023/09/16 00:30:51;;;;;;;2.22;2.03;;;19.50;77.80;;;;;;6121965;23;20220;-86
2023/09/16 00:33:17;;;;;;;2.20;2.00;;;19.50;77.80;;;;;;6121888;23;20493;-87
2023/09/16 00:35:43;;;;;;;2.97;2.42;;;19.50;77.80;;;;;;6121890;23;20144;-86
2023/09/16 00:38:09;;;;;;;2.33;2.13;;;19.50;78.70;;;;;;6121608;23;20137;-86
2023/09/16 00:40:36;;;;;;;2.45;2.20;;;19.40;77.80;;;;;;6095931;23;20145;-86
2023/09/16 00:43:02;;;;;;;2.75;2.20;;;19.50;78.70;;;;;;6120221;23;20136;-84
2023/09/16 00:45:28;;;;;;;2.40;2.20;;;19.50;78.00;;;;;;6119802;23;20176;-85
2023/09/16 00:47:54;;;;;;;3.03;2.40;;;19.50;78.00;;;;;;6120554;23;20140;-84
2023/09/16 00:50:20;;;;;;;3.17;2.20;;;19.50;78.00;;;;;;6121683;23;20141;-85
2023/09/16 00:52:49;;;;;;;2.42;2.10;;;19.50;78.00;;;;;;6121544;23;20502;-84
2023/09/16 00:55:15;;;;;;;3.00;2.33;;;19.50;77.90;;;;;;6096380;23;20215;-83
2023/09/16 00:57:42;;;;;;;2.42;2.20;;;19.50;77.90;;;;;;6095795;23;20231;-83
2023/09/16 01:00:08;;;;;;;2.38;2.17;;;19.50;78.00;;;;;;6120161;23;20149;-82
2023/09/16 01:02:37;;;;;;;2.30;2.03;;;19.50;77.90;;;;;;6120060;23;20155;-85
2023/09/16 01:05:05;;;;;;;2.90;2.30;;;19.50;78.00;;;;;;6120034;23;20596;-81
2023/09/16 01:07:31;;;;;;;2.58;2.10;;;19.50;77.90;;;;;;6119035;23;20137;-84
2023/09/16 01:09:57;;;;;;;2.72;2.28;;;19.40;77.80;;;;;;6095934;23;20171;-87
2023/09/16 01:12:22;;;;;;;3.40;2.60;;;19.50;78.00;;;;;;6121589;23;20213;-82
2023/09/16 01:14:48;;;;;;;2.20;2.00;;;19.50;78.00;;;;;;6120233;23;20151;-85
2023/09/16 01:17:17;;;;;;;2.40;2.20;;;19.50;78.00;;;;;;6120252;23;20132;-84
2023/09/16 01:20:01;;;;;;;2.30;2.10;;;19.50;77.90;;;;;;6120076;23;20160;-81
2023/09/16 01:22:27;;;;;;;2.53;2.25;;;19.50;78.00;;;;;;6095930;22;20202;-83
2023/09/16 01:24:54;;;;;;;2.45;2.10;;;19.50;78.00;;;;;;6100721;23;20179;-83
2023/09/16 01:27:21;;;;;;;2.58;2.10;;;19.50;78.00;;;;;;6100759;23;20140;-86
2023/09/16 01:29:47;;;;;;;2.38;2.17;;;19.50;78.00;;;;;;6101062;23;20184;-86
2023/09/16 01:32:13;;;;;;;2.40;2.20;;;19.40;78.00;;;;;;6125253;23;20476;-85
2023/09/16 01:34:44;;;;;;;3.72;2.53;;;19.50;78.00;;;;;;6150535;23;20552;-83
2023/09/16 01:37:15;;;;;;;2.90;2.38;;;19.50;78.00;;;;;;6101048;23;20521;-87
2023/09/16 01:39:41;;;;;;;3.15;2.30;;;19.50;78.00;;;;;;6124945;23;20132;-86
2023/09/16 01:42:06;;;;;;;3.25;2.33;;;19.50;78.00;;;;;;6124953;23;20150;-82
2023/09/16 01:44:32;;;;;;;2.58;2.10;;;19.50;78.00;;;;;;6100444;23;20139;-83
2023/09/16 01:46:58;;;;;;;2.67;2.28;;;19.40;78.00;;;;;;6150681;22;20143;-85
2023/09/16 01:49:24;;;;;;;2.55;2.22;;;19.40;78.00;;;;;;6124516;23;20600;-83
2023/09/16 01:51:50;;;;;;;2.58;2.15;;;19.50;78.10;;;;;;6124822;23;20163;-82
2023/09/16 01:54:16;;;;;;;2.35;2.15;;;19.50;78.10;;;;;;6150790;22;20604;-87
2023/09/16 01:56:44;;;;;;;2.30;2.10;;;19.50;78.10;;;;;;6124794;23;20140;-82
2023/09/16 01:59:10;;;;;;;3.17;2.22;;;19.50;78.10;;;;;;6124647;23;20163;-84
2023/09/16 02:01:36;;;;;;;2.70;2.30;;;19.40;78.00;;;;;;6150557;22;20131;-81
2023/09/16 02:04:01;;;;;;;2.47;2.28;;;19.50;78.10;;;;;;6124675;23;20151;-84
2023/09/16 02:06:27;;;;;;;2.45;2.10;;;19.50;78.10;;;;;;6124761;23;20618;-82
2023/09/16 02:08:53;;;;;;;2.30;2.10;;;19.50;78.10;;;;;;6099598;23;20215;-82
2023/09/16 02:11:18;;;;;;;2.45;2.25;;;19.40;78.10;;;;;;6150938;22;20131;-85
2023/09/16 02:13:44;;;;;;;2.22;2.03;;;19.40;78.10;;;;;;6150830;22;20135;-81
2023/09/16 02:16:11;;;;;;;2.42;2.00;;;19.40;78.10;;;;;;6150697;22;20834;-83
2023/09/16 02:18:36;;;;;;;2.90;2.20;;;19.40;78.10;;;;;;6100788;23;20496;-80
2023/09/16 02:21:02;;;;;;;2.47;2.25;;;19.40;78.10;;;;;;6101325;23;20164;-81
2023/09/16 02:23:29;;;;;;;2.63;2.40;;;19.40;78.10;;;;;;6126554;22;20245;-84
2023/09/16 02:26:01;;;;;;;2.40;2.10;;;19.50;78.10;;;;;;6128645;23;20187;-80
2023/09/16 02:28:30;;;;;;;2.50;2.13;;;19.40;78.10;;;;;;6128459;23;20133;-82
2023/09/16 02:30:56;;;;;;;2.50;2.30;;;19.40;78.10;;;;;;6230785;23;20219;-81
2023/09/16 02:33:22;;;;;;;2.38;2.17;;;19.40;78.10;;;;;;6128488;23;20518;-80
2023/09/16 02:35:49;;;;;;;3.03;2.38;;;19.40;78.10;;;;;;6129458;23;20167;-80
2023/09/16 02:38:20;;;;;;;2.60;2.15;;;19.40;78.10;;;;;;6203179;23;20156;-84
2023/09/16 02:40:53;;;;;;;2.42;2.22;;;19.40;78.10;;;;;;6174326;23;20207;-82
2023/09/16 02:43:20;;;;;;;2.35;2.05;;;19.40;78.20;;;;;;6223584;23;20156;-84
2023/09/16 02:45:58;;;;;;;2.30;2.10;;;19.50;78.20;;;;;;6222834;23;20226;-83
2023/09/16 02:48:27;;;;;;;2.53;2.25;;;19.40;78.10;;;;;;6094853;23;20230;-84
2023/09/16 02:50:54;;;;;;;2.85;2.38;;;19.40;78.20;;;;;;6070431;23;20248;-80
2023/09/16 02:53:21;;;;;;;2.50;2.30;;;19.50;78.20;;;;;;6197837;23;20556;-81
2023/09/16 02:55:47;;;;;;;2.45;2.25;;;19.40;78.20;;;;;;6096166;23;20944;-84
2023/09/16 02:58:13;;;;;;;2.22;2.03;;;19.40;78.30;;;;;;6120482;23;20170;-84
2023/09/16 03:00:39;;;;;;;2.50;2.30;;;19.40;78.20;;;;;;6096194;23;20588;-83
2023/09/16 03:03:04;;;;;;;2.30;2.10;;;19.40;78.20;;;;;;6121178;23;20136;-83
2023/09/16 03:05:30;;;;;;;2.80;2.20;;;19.40;78.20;;;;;;6120402;23;20168;-82
2023/09/16 03:07:56;;;;;;;3.13;2.38;;;19.40;78.10;;;;;;6119927;23;20537;-83
2023/09/16 03:10:22;;;;;;;2.30;2.10;;;19.40;78.20;;;;;;6120419;23;20140;-84
2023/09/16 03:12:47;;;;;;;3.20;2.45;;;19.40;78.20;;;;;;6096216;23;20159;-83
2023/09/16 03:15:13;;;;;;;2.53;2.33;;;19.40;78.20;;;;;;6122498;23;20510;-86
2023/09/16 03:17:39;;;;;;;2.10;1.90;;;19.30;78.10;;;;;;6122222;23;20512;-84
2023/09/16 03:20:05;;;;;;;2.60;2.20;;;19.40;78.20;;;;;;6096544;23;20140;-82
2023/09/16 03:22:31;;;;;;;2.90;2.50;;;19.40;78.20;;;;;;6122570;22;20137;-79
2023/09/16 03:24:57;;;;;;;2.78;2.40;;;19.40;78.20;;;;;;6151333;22;20570;-85
2023/09/16 03:27:23;;;;;;;2.95;2.50;;;19.40;78.30;;;;;;6151765;22;20278;-86
2023/09/16 03:29:49;;;;;;;2.45;2.25;;;19.40;78.20;;;;;;6151541;22;20187;-82
2023/09/16 03:32:14;;;;;;;2.60;2.40;;;19.40;78.30;;;;;;6125700;23;20567;-83
2023/09/16 03:34:40;;;;;;;2.35;2.15;;;19.40;78.30;;;;;;6125345;23;20136;-79
2023/09/16 03:37:06;;;;;;;2.53;2.33;;;19.40;78.20;;;;;;6151408;22;20475;-82
2023/09/16 03:39:32;;;;;;;2.55;2.10;;;19.40;78.20;;;;;;6125357;23;20218;-84
2023/09/16 03:41:58;;;;;;;2.60;2.40;;;19.40;78.20;;;;;;6100727;23;20148;-84
2023/09/16 03:44:23;;;;;;;2.95;2.20;;;19.40;78.20;;;;;;6125460;23;20147;-84
2023/09/16 03:46:49;;;;;;;2.55;2.35;;;19.40;78.20;;;;;;6150992;22;20206;-85
2023/09/16 03:49:15;;;;;;;2.50;2.30;;;19.40;78.20;;;;;;6151564;22;20182;-82
2023/09/16 03:51:40;;;;;;;3.03;2.30;;;19.40;78.30;;;;;;6151415;22;20573;-81
2023/09/16 03:54:06;;;;;;;2.60;2.25;;;19.40;78.30;;;;;;6151344;22;20150;-84
2023/09/16 03:56:33;;;;;;;2.83;2.28;;;19.40;78.30;;;;;;6125615;23;20234;-83
2023/09/16 03:58:59;;;;;;;3.15;2.33;;;19.40;78.30;;;;;;6101089;23;20139;-82
2023/09/16 04:01:24;;;;;;;2.78;2.30;;;19.40;78.30;;;;;;6151388;22;20136;-81
2023/09/16 04:03:51;;;;;;;2.58;2.28;;;19.30;78.20;;;;;;6125485;23;20135;-81
2023/09/16 04:06:17;;;;;;;2.65;2.33;;;19.40;78.30;;;;;;6101219;23;20217;-87
2023/09/16 04:08:43;;;;;;;2.40;2.20;;;19.40;78.30;;;;;;6124463;23;20546;-85
2023/09/16 04:11:09;;;;;;;2.40;2.20;;;19.40;78.30;;;;;;6151208;22;20138;-84
2023/09/16 04:13:35;;;;;;;2.40;2.20;;;19.40;78.30;;;;;;6077035;23;20226;-85
2023/09/16 04:16:01;;;;;;;2.90;2.42;;;19.40;78.30;;;;;;6125452;23;20594;-83
2023/09/16 04:18:27;;;;;;;2.97;2.13;;;19.40;78.30;;;;;;6151393;22;20171;-80
2023/09/16 04:20:55;;;;;;;3.33;2.13;;;19.40;78.30;;;;;;6151197;22;20161;-82
2023/09/16 04:23:21;;;;;;;2.97;2.33;;;19.40;78.50;;;;;;6124751;23;20643;-83
2023/09/16 04:25:53;;;;;;;2.38;2.15;;;19.40;78.30;;;;;;6125402;23;20175;-82
2023/09/16 04:28:19;;;;;;;2.28;2.03;;;19.40;78.30;;;;;;6125540;23;20166;-87
2023/09/16 04:30:49;;;;;;;2.67;2.30;;;19.40;78.30;;;;;;6151419;22;20140;-82
2023/09/16 04:33:15;;;;;;;2.47;2.28;;;19.40;78.30;;;;;;6101075;23;20491;-83
2023/09/16 04:35:45;;;;;;;2.28;2.08;;;19.40;78.30;;;;;;6100652;23;20576;-82
2023/09/16 04:38:13;;;;;;;2.50;2.25;;;19.40;78.30;;;;;;6125538;23;20148;-84
2023/09/16 04:40:41;;;;;;;2.75;2.40;;;19.40;78.30;;;;;;6077154;23;20183;-83
2023/09/16 04:43:07;;;;;;;2.50;2.30;;;19.30;78.20;;;;;;6151146;22;20140;-84
2023/09/16 04:45:32;;;;;;;2.47;2.25;;;19.40;78.30;;;;;;6150915;22;20167;-83
2023/09/16 04:47:59;;;;;;;2.13;1.90;;;19.40;78.20;;;;;;6151145;22;20189;-83
2023/09/16 04:50:28;;;;;;;2.67;2.20;;;19.30;78.20;;;;;;6125085;23;20601;-82
2023/09/16 04:52:54;;;;;;;3.03;2.40;;;19.40;78.20;;;;;;6151321;22;20457;-83
2023/09/16 04:55:20;;;;;;;2.10;1.90;;;19.40;78.30;;;;;;6124918;23;20147;-83
2023/09/16 04:57:46;;;;;;;2.45;2.10;;;19.40;78.20;;;;;;6151051;22;20579;-85
2023/09/16 05:00:12;;;;;;;2.92;2.63;;;19.40;78.20;;;;;;6100910;23;20159;-83
2023/09/16 05:02:38;;;;;;;2.30;2.10;;;19.40;78.30;;;;;;6125284;23;20131;-84
2023/09/16 05:05:04;;;;;;;2.78;2.40;;;19.40;78.20;;;;;;6100649;23;20236;-84
2023/09/16 05:07:30;;;;;;;2.53;2.33;;;19.40;78.20;;;;;;6124189;23;20141;-85
2023/09/16 05:09:56;;;;;;;2.42;2.20;;;19.40;78.20;;;;;;6125064;23;20132;-85
2023/09/16 05:12:22;;;;;;;2.63;2.33;;;19.40;78.20;;;;;;6124882;23;20575;-80
2023/09/16 05:14:50;;;;;;;2.85;2.30;;;19.40;78.20;;;;;;6151155;23;20132;-84
2023/09/16 05:17:16;;;;;;;2.42;2.00;;;19.40;78.10;;;;;;6101101;23;20178;-85
2023/09/16 05:19:42;;;;;;;2.50;2.30;;;19.40;78.20;;;;;;6125061;23;20135;-85
2023/09/16 05:22:07;;;;;;;2.80;2.20;;;19.40;78.10;;;;;;6150792;22;20519;-81
2023/09/16 05:24:33;;;;;;;2.55;2.35;;;19.40;78.10;;;;;;6100522;23;20627;-82
2023/09/16 05:26:59;;;;;;;2.50;2.30;;;19.40;78.10;;;;;;6125011;23;20250;-86
2023/09/16 05:29:25;;;;;;;2.60;2.28;;;19.40;78.10;;;;;;6125258;23;20155;-86
2023/09/16 05:31:51;;;;;;;2.38;2.10;;;19.40;78.00;;;;;;6076178;23;20163;-82
2023/09/16 05:34:17;;;;;;;2.42;2.20;;;19.40;78.00;;;;;;6100249;23;20163;-79
2023/09/16 05:36:42;;;;;;;2.65;2.25;;;19.40;77.90;;;;;;6100505;23;20190;-83
2023/09/16 05:39:08;;;;;;;2.42;2.10;;;19.50;77.90;;;;;;6125346;23;20466;-82
2023/09/16 05:41:35;;;;;;;2.58;2.28;;;19.50;77.90;;;;;;6124810;23;20190;-84
2023/09/16 05:44:02;;;;;;;2.40;2.03;;;19.40;77.70;;;;;;6125257;23;20595;-82
2023/09/16 05:46:28;;;;;;;2.53;2.30;;;19.40;77.70;;;;;;6100043;23;20183;-80
2023/09/16 05:49:06;;;;;;;2.72;2.40;;;19.50;77.60;;;;;;6124671;23;20156;-82
2023/09/16 05:51:32;;;;;;;2.90;2.30;;;19.50;77.70;;;;;;6127568;23;20547;-85
2023/09/16 05:53:58;;;;;;;2.42;2.13;;;19.50;77.70;;;;;;6125109;23;20135;-81
2023/09/16 05:56:24;;;;;;;2.42;2.22;;;19.50;77.70;;;;;;6150830;22;20143;-85
2023/09/16 05:58:50;;;;;;;2.55;2.30;;;19.50;77.70;;;;;;6124311;23;20298;-82
2023/09/16 06:01:16;;;;;;;2.25;2.05;;;19.50;77.60;;;;;;6100148;23;20177;-84
2023/09/16 06:03:42;;;;;;;2.75;2.40;;;19.50;77.60;;;;;;6150894;22;20177;-81
2023/09/16 06:06:08;;;;;;;3.20;2.47;;;19.50;77.40;;;;;;6124933;23;20194;-85
2023/09/16 06:08:34;;;;;;;2.60;2.20;;;19.50;77.40;;;;;;6123627;23;20148;-79
2023/09/16 06:11:00;;;;;;;2.30;2.10;;;19.60;77.30;;;;;;6150593;23;20135;-81
2023/09/16 06:13:26;;;;;;;2.80;2.30;;;19.60;77.30;;;;;;6150475;22;20582;-82
2023/09/16 06:15:52;;;;;;;2.80;2.30;;;19.60;77.40;;;;;;6125007;23;20175;-84
2023/09/16 06:18:18;;;;;;;2.60;2.22;;;19.60;77.30;;;;;;6124533;23;20135;-81
2023/09/16 06:20:44;;;;;;;2.65;2.25;;;19.60;77.10;;;;;;6150461;22;20166;-83
2023/09/16 06:23:10;;;;;;;2.75;2.30;;;19.60;77.10;;;;;;6150133;22;20205;-83
2023/09/16 06:25:36;;;;;;;2.60;2.17;;;19.60;77.00;;;;;;6150552;22;20179;-83
2023/09/16 06:28:03;;;;;;;2.40;2.20;;;19.70;76.90;;;;;;6150334;22;20162;-83
2023/09/16 06:30:29;;;;;;;3.10;2.20;;;19.70;76.80;;;;;;6125061;23;20140;-82
2023/09/16 06:32:57;;;;;;;2.60;2.20;;;19.70;76.70;;;;;;6124638;23;20187;-85
2023/09/16 06:35:23;;;;;;;2.50;2.25;;;19.70;76.70;;;;;;6150375;22;20150;-81
2023/09/16 06:37:50;;;;;;;2.28;2.08;;;19.60;76.80;;;;;;6150053;22;20210;-83
2023/09/16 06:40:17;;;;;;;2.40;2.00;;;19.60;77.20;;;;;;6100339;23;20143;-84
2023/09/16 06:42:43;;;;;;;2.72;2.13;;;19.60;77.30;;;;;;6124432;23;20147;-83
2023/09/16 06:45:10;;;;;;;2.50;2.30;;;19.60;77.20;;;;;;6100318;23;20171;-82
2023/09/16 06:47:35;;;;;;;2.17;1.98;;;19.70;77.40;;;;;;6124004;23;20159;-82
2023/09/16 06:50:01;;;;;;;2.85;2.28;;;19.60;77.50;;;;;;6124435;23;20564;-81
2023/09/16 06:52:28;;;;;;;2.17;1.98;;;19.60;77.60;;;;;;6150124;22;20877;-82
2023/09/16 06:54:54;;;;;;;2.33;1.90;;;19.60;77.70;;;;;;6124628;23;20159;-83
2023/09/16 06:57:20;;;;;;;2.03;1.83;;;19.60;77.90;;;;;;6124604;23;20169;-82
2023/09/16 06:59:47;;;;;;;2.10;1.90;;;19.60;77.70;;;;;;6149886;22;20136;-82
2023/09/16 07:02:13;;;;;;;2.00;1.80;;;19.70;77.80;;;;;;6124366;23;20179;-81
2023/09/16 07:04:40;;;;;;;1.90;1.75;;;19.60;77.80;;;;;;6150369;22;20136;-83
2023/09/16 07:07:08;;;;;;;1.70;1.60;;;19.60;77.70;;;;;;6124491;23;20140;-82
2023/09/16 07:09:34;;;;;;;2.47;1.90;;;19.60;77.90;;;;;;6149311;23;20140;-82
2023/09/16 07:11:59;;;;;;;2.00;1.80;;;19.70;77.90;;;;;;6124976;23;20163;-84
2023/09/16 07:14:26;;;;;;;2.40;2.00;;;19.60;78.10;;;;;;6151448;22;20559;-84
2023/09/16 07:16:51;;;;;;;2.05;1.73;;;19.60;78.10;;;;;;6101419;23;20180;-81
2023/09/16 07:19:17;;;;;;;1.77;1.67;;;19.60;78.10;;;;;;6125493;23;20140;-82
2023/09/16 07:21:43;;;;;;;1.85;1.73;;;19.60;78.20;;;;;;6151002;22;20163;-86
2023/09/16 07:24:09;;;;;;;1.85;1.73;;;19.60;78.30;;;;;;6125292;22;20201;-85
2023/09/16 07:26:34;;;;;;;1.60;1.50;;;19.50;78.60;;;;;;6125582;23;20175;-81
2023/09/16 07:29:00;;;;;;;1.73;1.63;;;19.50;78.70;;;;;;6125176;23;20159;-82
2023/09/16 07:31:26;;;;;;;1.90;1.80;;;19.50;78.90;;;;;;6125392;23;20132;-85
2023/09/16 07:33:51;;;;;;;1.83;1.70;;;19.50;79.00;;;;;;6125767;23;20177;-85
2023/09/16 07:36:17;;;;;;;2.08;1.73;;;19.50;78.80;;;;;;6101043;23;20155;-84
2023/09/16 07:38:43;;;;;;;1.75;1.50;;;19.50;78.90;;;;;;6151453;22;20214;-83
2023/09/16 07:41:09;;;;;;;1.70;1.48;;;19.50;78.90;;;;;;6125516;23;20506;-80
2023/09/16 07:43:35;;;;;;;1.73;1.63;;;19.50;79.00;;;;;;6125266;23;20140;-82
2023/09/16 07:46:00;;;;;;;1.60;1.50;;;19.50;79.90;;;;;;6125076;23;20242;-81
2023/09/16 07:48:26;;;;;;;1.55;1.45;;;19.50;79.20;;;;;;6151702;22;20459;-82
2023/09/16 07:50:54;;;;;;;2.03;1.70;;;19.50;79.50;;;;;;6101016;23;20823;-83
2023/09/16 07:53:20;;;;;;;1.92;1.60;;;19.50;79.40;;;;;;6151628;22;20127;-83
2023/09/16 07:55:46;;;;;;;1.88;1.77;;;19.50;79.50;;;;;;6151383;23;20144;-82
2023/09/16 07:58:12;;;;;;;1.70;1.60;;;19.50;79.50;;;;;;6124924;23;20147;-81
2023/09/16 08:00:38;;;;;;;2.00;1.60;;;19.40;79.50;;;;;;6151460;22;20443;-85
2023/09/16 08:03:04;;;;;;;1.65;1.55;;;19.40;79.80;;;;;;6151253;22;20146;-82
2023/09/16 08:05:29;;;;;;;1.70;1.60;;;19.40;79.80;;;;;;6151184;22;20172;-87
2023/09/16 08:07:55;;;;;;;2.05;1.85;;;19.50;80.00;;;;;;6150460;22;20624;-83
2023/09/16 08:10:21;;;;;;;2.72;1.80;;;19.40;79.80;;;;;;6124928;23;20170;-82
2023/09/16 08:12:46;;;;;;;1.95;1.50;;;19.40;79.80;;;;;;6100900;23;20148;-82
2023/09/16 08:15:12;;;;;;;2.13;1.60;;;19.50;79.90;;;;;;6125396;23;20151;-83
2023/09/16 08:17:38;;;;;;;2.05;1.65;;;19.50;79.80;;;;;;6150563;22;20575;-82
2023/09/16 08:20:06;;;;;;;1.90;1.70;;;19.50;79.90;;;;;;6101009;23;20139;-83
2023/09/16 08:22:31;;;;;;;1.60;1.50;;;19.50;79.90;;;;;;6124523;23;20140;-83
2023/09/16 08:24:57;;;;;;;2.03;1.60;;;19.50;79.80;;;;;;6150772;22;20251;-80
2023/09/16 08:27:27;;;;;;;1.98;1.77;;;19.50;79.60;;;;;;6100640;23;20151;-81
2023/09/16 08:29:56;;;;;;;1.80;1.70;;;19.50;79.70;;;;;;6202327;23;20155;-86
2023/09/16 08:32:24;;;;;;;2.15;1.98;;;19.50;79.60;;;;;;6202256;23;20155;-82
2023/09/16 08:34:53;;;;;;;1.95;1.75;;;19.50;79.80;;;;;;6150981;22;20136;-83
2023/09/16 08:37:22;;;;;;;1.77;1.67;;;19.50;79.80;;;;;;6201998;23;20166;-84
2023/09/16 08:39:50;;;;;;;2.00;1.80;;;19.40;79.80;;;;;;6202016;23;20163;-84
2023/09/16 08:42:26;;;;;;;2.03;1.83;;;19.50;79.80;;;;;;6202224;23;20151;-83
2023/09/16 08:44:57;;;;;;;1.73;1.60;;;19.40;79.90;;;;;;6227569;23;20602;-84
2023/09/16 08:47:34;;;;;;;2.45;2.10;;;19.40;79.90;;;;;;6202202;23;20305;-85
2023/09/16 08:50:08;;;;;;;1.90;1.80;;;19.40;80.00;;;;;;6101241;23;20151;-83
2023/09/16 08:52:44;;;;;;;2.67;2.10;;;19.40;80.00;;;;;;6127077;23;20189;-83
2023/09/16 08:55:12;;;;;;;2.15;1.95;;;19.50;80.00;;;;;;6205912;23;20155;-82
2023/09/16 08:57:50;;;;;;;2.03;1.83;;;19.50;80.00;;;;;;6131532;23;20187;-81
2023/09/16 09:00:16;;;;;;;2.25;2.05;;;19.40;79.90;;;;;;6157534;23;20550;-79
2023/09/16 09:02:43;;;;;;;2.28;1.90;;;19.40;79.90;;;;;;6131040;23;20159;-82
2023/09/16 09:05:10;;;;;;;2.20;2.00;;;19.40;79.90;;;;;;6100597;23;20167;-85
2023/09/16 09:07:37;;;;;;;2.20;1.90;;;19.40;79.90;;;;;;6151621;22;20139;-85
2023/09/16 09:10:04;;;;;;;2.33;2.08;;;19.40;79.90;;;;;;6152244;23;20135;-83
2023/09/16 09:12:30;;;;;;;2.00;1.80;;;19.40;79.90;;;;;;6102389;23;20185;-83
2023/09/16 09:14:56;;;;;;;2.15;1.95;;;19.40;79.80;;;;;;6100525;23;20154;-84
2023/09/16 09:17:22;;;;;;;2.17;1.98;;;19.40;79.90;;;;;;6124552;23;20143;-84
2023/09/16 09:19:48;;;;;;;1.77;1.65;;;19.40;79.80;;;;;;6100278;23;20491;-85
2023/09/16 09:22:14;;;;;;;2.17;1.98;;;19.40;79.70;;;;;;6150431;22;20642;-82
2023/09/16 09:24:39;;;;;;;1.90;1.70;;;19.50;80.60;;;;;;6100040;23;20301;-86
2023/09/16 09:27:06;;;;;;;2.03;1.83;;;19.50;79.80;;;;;;6100395;23;20172;-79
2023/09/16 09:29:32;;;;;;;2.00;1.80;;;19.50;79.80;;;;;;6150651;22;20515;-84
2023/09/16 09:31:58;;;;;;;2.05;1.83;;;19.50;79.90;;;;;;6124558;23;20566;-84
2023/09/16 09:34:26;;;;;;;2.00;1.90;;;19.50;79.90;;;;;;6150613;22;20178;-85
2023/09/16 09:36:52;;;;;;;2.08;1.88;;;19.50;79.90;;;;;;6076841;23;20179;-81
2023/09/16 09:39:18;;;;;;;2.42;2.10;;;19.50;79.90;;;;;;6100149;23;20155;-82
2023/09/16 09:41:46;;;;;;;2.20;2.00;;;19.50;79.90;;;;;;6150834;22;20143;-86
2023/09/16 09:44:13;;;;;;;1.90;1.75;;;19.40;79.90;;;;;;6124470;23;20612;-85
2023/09/16 09:46:40;;;;;;;2.40;1.75;;;19.50;79.90;;;;;;6123907;23;20262;-82
2023/09/16 09:49:05;;;;;;;2.05;1.92;;;19.50;79.90;;;;;;6123979;23;20235;-82
2023/09/16 09:51:32;;;;;;;2.70;1.98;;;19.40;79.90;;;;;;6124235;23;20656;-82
2023/09/16 09:53:57;;;;;;;2.00;1.80;;;19.50;79.90;;;;;;6124546;23;20171;-81
2023/09/16 09:56:23;;;;;;;1.88;1.70;;;19.50;79.90;;;;;;6100427;23;20140;-82
2023/09/16 09:58:50;;;;;;;2.40;2.00;;;19.50;79.90;;;;;;6149967;22;20127;-82
2023/09/16 10:01:15;;;;;;;2.13;1.88;;;19.60;79.90;;;;;;6124870;23;20136;-84
2023/09/16 10:03:47;;;;;;;2.53;2.00;;;19.60;79.90;;;;;;6100112;23;20463;-84
2023/09/16 10:06:14;;;;;;;1.80;1.65;;;19.60;79.90;;;;;;6099960;23;20228;-81
2023/09/16 10:08:40;;;;;;;2.17;1.85;;;19.60;79.80;;;;;;6123500;23;20132;-82
2023/09/16 10:11:05;;;;;;;2.38;2.13;;;19.60;79.90;;;;;;6124131;23;20658;-81
2023/09/16 10:13:32;;;;;;;1.95;1.75;;;19.60;79.70;;;;;;6150491;22;20215;-84
2023/09/16 10:16:00;;;;;;;2.10;1.90;;;19.60;79.70;;;;;;6124586;23;20226;-83
2023/09/16 10:18:28;;;;;;;2.03;1.83;;;19.60;79.60;;;;;;6151022;23;20176;-84
2023/09/16 10:20:54;;;;;;;1.70;1.60;;;19.60;79.60;;;;;;6125695;23;20731;-81
2023/09/16 10:23:21;;;;;;;2.15;1.90;;;19.60;79.50;;;;;;6120664;23;20627;-83
2023/09/16 10:25:47;;;;;;;2.00;1.85;;;19.60;79.50;;;;;;6119214;23;20194;-81
2023/09/16 10:28:14;;;;;;;2.05;1.88;;;19.70;79.60;;;;;;6119570;23;20136;-82
2023/09/16 10:30:43;;;;;;;2.45;2.05;;;19.60;79.50;;;;;;6119919;23;20199;-82
2023/09/16 10:33:13;;;;;;;2.53;2.00;;;19.70;79.50;;;;;;6093363;23;20236;-82
2023/09/16 10:35:43;;;;;;;2.42;2.03;;;19.60;79.50;;;;;;6120239;23;20307;-82
2023/09/16 10:38:12;;;;;;;2.33;2.00;;;19.70;79.50;;;;;;6196487;23;20167;-82
2023/09/16 10:40:38;;;;;;;3.20;2.33;;;19.60;79.40;;;;;;6069896;23;20175;-81
2023/09/16 10:43:04;;;;;;;1.90;1.80;;;19.60;79.40;;;;;;6095229;23;20239;-84
2023/09/16 10:45:31;;;;;;;2.38;1.80;;;19.70;79.40;;;;;;6120892;23;20592;-84
2023/09/16 10:47:59;;;;;;;2.28;2.08;;;19.70;79.30;;;;;;6122009;23;20219;-79
2023/09/16 10:50:25;;;;;;;2.60;2.00;;;19.70;79.20;;;;;;6120876;23;20143;-82
2023/09/16 10:53:02;;;;;;;2.65;2.20;;;19.70;79.20;;;;;;6120300;23;20149;-80
2023/09/16 10:55:48;;;;;;;2.53;1.90;;;19.70;79.20;;;;;;6218369;23;20317;-83
2023/09/16 10:58:23;;;;;;;2.20;1.90;;;19.70;79.40;;;;;;6121718;23;20206;-82
2023/09/16 11:00:53;;;;;;;2.28;2.00;;;19.70;79.20;;;;;;6095575;23;20155;-84
2023/09/16 11:03:21;;;;;;;2.00;1.80;;;19.70;79.20;;;;;;6169970;23;20214;-82
2023/09/16 11:05:47;;;;;;;2.03;1.80;;;19.70;79.20;;;;;;6120152;23;20168;-82
2023/09/16 11:08:12;;;;;;;2.40;2.20;;;19.80;79.30;;;;;;6120950;23;20148;-85
2023/09/16 11:10:39;;;;;;;1.92;1.83;;;19.70;79.10;;;;;;6121939;23;20215;-85
2023/09/16 11:13:05;;;;;;;1.75;1.65;;;19.80;79.00;;;;;;6096226;23;20168;-83
2023/09/16 11:15:32;;;;;;;2.42;2.10;;;19.80;79.00;;;;;;6120450;23;20533;-82
2023/09/16 11:18:03;;;;;;;2.38;1.90;;;19.80;78.70;;;;;;6120362;23;20139;-81
2023/09/16 11:20:31;;;;;;;1.90;1.80;;;19.90;78.90;;;;;;6120673;23;20133;-86
2023/09/16 11:22:59;;;;;;;2.15;1.90;;;19.80;78.80;;;;;;6122513;22;20207;-83
2023/09/16 11:25:29;;;;;;;2.20;2.00;;;19.80;78.70;;;;;;6125115;23;20171;-82
2023/09/16 11:27:55;;;;;;;2.10;1.90;;;19.80;78.60;;;;;;6151486;23;20160;-80
2023/09/16 11:30:23;;;;;;;2.25;2.05;;;19.80;78.60;;;;;;6151204;23;20470;-82
2023/09/16 11:33:24;;;;;;;2.05;1.73;;;19.80;78.60;;;;;;6203142;23;20159;-82
2023/09/16 11:36:11;;;;;;;2.25;2.05;;;19.90;78.70;;;;;;6083541;23;20159;-85
2023/09/16 11:38:39;;;;;;;2.20;2.00;;;19.90;78.50;;;;;;6126387;23;20140;-84
2023/09/16 11:41:10;;;;;;;2.10;1.90;;;19.80;78.50;;;;;;6125302;23;20468;-85
2023/09/16 11:43:38;;;;;;;1.90;1.80;;;19.90;78.60;;;;;;6101805;23;20151;-81
2023/09/16 11:46:04;;;;;;;2.20;2.00;;;19.80;78.50;;;;;;6151016;23;20172;-80
2023/09/16 11:48:48;;;;;;;2.05;1.85;;;19.90;78.50;;;;;;6126275;23;20140;-83
2023/09/16 11:51:16;;;;;;;2.05;1.88;;;19.90;78.40;;;;;;6153106;23;20140;-84
2023/09/16 11:53:42;;;;;;;2.55;2.00;;;19.80;78.30;;;;;;6127263;23;20164;-80
2023/09/16 11:56:11;;;;;;;2.42;2.15;;;19.80;78.30;;;;;;6101104;23;20148;-83
2023/09/16 11:58:39;;;;;;;2.35;2.00;;;19.80;78.50;;;;;;6075326;23;20152;-83
2023/09/16 12:01:05;;;;;;;2.00;1.70;;;19.80;78.50;;;;;;6101847;23;20132;-85
2023/09/16 12:03:31;;;;;;;2.20;2.00;;;19.80;78.50;;;;;;6126102;23;20135;-83
2023/09/16 12:05:58;;;;;;;2.42;2.13;;;19.90;78.60;;;;;;6152113;22;20172;-83
2023/09/16 12:08:26;;;;;;;2.20;2.00;;;19.90;78.70;;;;;;6151955;23;20152;-86
2023/09/16 12:10:52;;;;;;;2.30;2.10;;;19.80;78.60;;;;;;6202412;23;20155;-83
2023/09/16 12:13:28;;;;;;;2.10;1.90;;;19.90;78.50;;;;;;6101079;23;20507;-83
2023/09/16 12:15:55;;;;;;;1.75;1.65;;;19.90;78.40;;;;;;6176960;23;20155;-82
2023/09/16 12:18:21;;;;;;;2.15;1.95;;;19.90;78.30;;;;;;6227527;23;20178;-82
2023/09/16 12:20:47;;;;;;;2.25;2.05;;;19.90;78.20;;;;;;6125065;23;20590;-82
2023/09/16 12:23:14;;;;;;;2.10;1.90;;;19.90;78.10;;;;;;6119838;22;20200;-84
2023/09/16 12:25:41;;;;;;;5.47;2.38;;;20.00;78.10;;;;;;6121422;23;20168;-80
2023/09/16 12:28:09;;;;;;;2.30;1.98;;;19.90;78.90;;;;;;6120460;23;20132;-80
2023/09/16 12:30:43;;;;;;;2.17;1.98;;;20.00;77.90;;;;;;6120074;23;20132;-79
2023/09/16 12:33:10;;;;;;;2.70;2.13;;;20.00;78.50;;;;;;6095343;23;20167;-81
2023/09/16 12:35:38;;;;;;;2.80;2.17;;;20.00;77.90;;;;;;6119612;23;20152;-80
2023/09/16 12:38:04;;;;;;;2.10;1.90;;;20.00;78.00;;;;;;6121506;23;20203;-81
2023/09/16 12:40:30;;;;;;;2.25;2.05;;;20.00;77.80;;;;;;6120050;23;20191;-82
2023/09/16 12:42:56;;;;;;;2.00;1.90;;;20.00;77.80;;;;;;6120534;23;20154;-81
2023/09/16 12:45:22;;;;;;;2.55;1.98;;;20.00;77.90;;;;;;6119677;23;20266;-81
2023/09/16 12:47:50;;;;;;;2.22;2.03;;;20.00;77.70;;;;;;6121602;23;20174;-83